sensor_id;sensor_type;location;lat;lon;timestamp;pressure;altitude;pressure_sealevel;temperature;humidity
31911;BME280;18457;52.432;16.914;2022-07-05T00:00:47;100722.98;;;20.59;61.86
31911;BME280;18457;52.432;16.914;2022-07-05T00:03:19;100721.57;;;20.52;62.22
31911;BME280;18457;52.432;16.914;2022-07-05T00:05:52;100729.05;;;20.41;62.66
31911;BME280;18457;52.432;16.914;2022-07-05T00:08:24;100727.86;;;20.36;63.08
31911;BME280;18457;52.432;16.914;2022-07-05T00:10:57;100724.41;;;20.39;62.83
31911;BME280;18457;52.432;16.914;2022-07-05T00:13:29;100719.34;;;20.47;62.83
31911;BME280;18457;52.432;16.914;2022-07-05T00:16:01;100725.75;;;20.44;62.86
31911;BME280;18457;52.432;16.914;2022-07-05T00:18:33;100725.27;;;20.30;63.40
31911;BME280;18457;52.432;16.914;2022-07-05T00:21:05;100725.67;;;20.48;62.81
31911;BME280;18457;52.432;16.914;2022-07-05T00:23:37;100723.33;;;20.57;62.80
31911;BME280;18457;52.432;16.914;2022-07-05T00:26:09;100730.63;;;20.51;63.18
31911;BME280;18457;52.432;16.914;2022-07-05T00:28:41;100735.86;;;20.67;62.62
31911;BME280;18457;52.432;16.914;2022-07-05T00:31:12;100735.94;;;20.69;62.49
31911;BME280;18457;52.432;16.914;2022-07-05T00:33:44;100736.91;;;20.68;62.63
31911;BME280;18457;52.432;16.914;2022-07-05T00:36:16;100731.30;;;20.70;62.42
31911;BME280;18457;52.432;16.914;2022-07-05T00:38:49;100727.11;;;20.67;62.74
31911;BME280;18457;52.432;16.914;2022-07-05T00:41:19;100723.11;;;20.69;62.65
31911;BME280;18457;52.432;16.914;2022-07-05T00:43:56;100726.83;;;20.71;62.80
31911;BME280;18457;52.432;16.914;2022-07-05T00:46:28;100728.38;;;20.70;62.84
31911;BME280;18457;52.432;16.914;2022-07-05T00:49:01;100728.80;;;20.54;63.39
31911;BME280;18457;52.432;16.914;2022-07-05T00:51:36;100734.31;;;20.48;63.63
31911;BME280;18457;52.432;16.914;2022-07-05T00:54:30;100742.60;;;20.07;64.94
31911;BME280;18457;52.432;16.914;2022-07-05T00:57:04;100743.86;;;20.13;65.03
31911;BME280;18457;52.432;16.914;2022-07-05T00:59:36;100747.11;;;20.18;64.75
31911;BME280;18457;52.432;16.914;2022-07-05T01:02:08;100747.62;;;20.12;65.02
31911;BME280;18457;52.432;16.914;2022-07-05T01:04:49;100746.96;;;20.17;65.19
31911;BME280;18457;52.432;16.914;2022-07-05T01:07:22;100748.50;;;20.06;65.53
31911;BME280;18457;52.432;16.914;2022-07-05T01:09:57;100748.04;;;20.11;65.58
31911;BME280;18457;52.432;16.914;2022-07-05T01:12:29;100749.20;;;20.32;64.65
31911;BME280;18457;52.432;16.914;2022-07-05T01:15:01;100749.88;;;20.36;64.72
31911;BME280;18457;52.432;16.914;2022-07-05T01:17:34;100748.41;;;20.36;64.59
31911;BME280;18457;52.432;16.914;2022-07-05T01:20:08;100748.51;;;20.31;64.88
31911;BME280;18457;52.432;16.914;2022-07-05T01:22:53;100746.86;;;20.41;64.63
31911;BME280;18457;52.432;16.914;2022-07-05T01:25:26;100743.23;;;20.43;64.64
31911;BME280;18457;52.432;16.914;2022-07-05T01:27:59;100744.05;;;20.29;65.23
31911;BME280;18457;52.432;16.914;2022-07-05T01:30:35;100740.83;;;20.31;65.10
31911;BME280;18457;52.432;16.914;2022-07-05T01:33:08;100739.03;;;20.34;65.18
31911;BME280;18457;52.432;16.914;2022-07-05T01:35:41;100734.88;;;20.35;65.15
31911;BME280;18457;52.432;16.914;2022-07-05T01:38:13;100733.77;;;20.35;65.18
31911;BME280;18457;52.432;16.914;2022-07-05T01:40:47;100738.64;;;20.37;65.38
31911;BME280;18457;52.432;16.914;2022-07-05T01:43:23;100738.47;;;20.34;65.39
31911;BME280;18457;52.432;16.914;2022-07-05T01:45:57;100738.45;;;20.37;65.58
31911;BME280;18457;52.432;16.914;2022-07-05T01:48:34;100740.02;;;20.42;65.42
31911;BME280;18457;52.432;16.914;2022-07-05T01:51:10;100737.50;;;20.35;65.87
31911;BME280;18457;52.432;16.914;2022-07-05T01:53:45;100732.88;;;20.29;66.08
31911;BME280;18457;52.432;16.914;2022-07-05T01:56:18;100731.81;;;20.38;65.95
31911;BME280;18457;52.432;16.914;2022-07-05T01:58:52;100728.20;;;20.37;66.30
31911;BME280;18457;52.432;16.914;2022-07-05T02:01:35;100728.73;;;20.37;66.18
31911;BME280;18457;52.432;16.914;2022-07-05T02:04:09;100734.26;;;20.30;66.45
31911;BME280;18457;52.432;16.914;2022-07-05T02:06:43;100733.11;;;20.28;66.99
31911;BME280;18457;52.432;16.914;2022-07-05T02:09:15;100733.17;;;20.24;67.09
31911;BME280;18457;52.432;16.914;2022-07-05T02:11:48;100729.95;;;20.32;66.78
31911;BME280;18457;52.432;16.914;2022-07-05T02:14:21;100727.30;;;20.11;67.53
31911;BME280;18457;52.432;16.914;2022-07-05T02:16:53;100717.65;;;20.01;67.94
31911;BME280;18457;52.432;16.914;2022-07-05T02:19:25;100708.79;;;19.79;69.10
31911;BME280;18457;52.432;16.914;2022-07-05T02:21:59;100701.19;;;19.83;69.10
31911;BME280;18457;52.432;16.914;2022-07-05T02:24:31;100704.69;;;19.96;68.80
31911;BME280;18457;52.432;16.914;2022-07-05T02:27:12;100704.02;;;20.07;68.42
31911;BME280;18457;52.432;16.914;2022-07-05T02:29:44;100704.61;;;20.20;67.96
31911;BME280;18457;52.432;16.914;2022-07-05T02:32:16;100708.98;;;20.11;68.45
31911;BME280;18457;52.432;16.914;2022-07-05T02:34:48;100714.17;;;20.16;68.27
31911;BME280;18457;52.432;16.914;2022-07-05T02:37:20;100713.06;;;20.16;68.49
31911;BME280;18457;52.432;16.914;2022-07-05T02:39:52;100709.77;;;20.16;68.63
31911;BME280;18457;52.432;16.914;2022-07-05T02:42:24;100721.84;;;20.16;68.67
31911;BME280;18457;52.432;16.914;2022-07-05T02:44:56;100722.33;;;20.14;68.88
31911;BME280;18457;52.432;16.914;2022-07-05T02:47:32;100720.92;;;20.01;69.42
31911;BME280;18457;52.432;16.914;2022-07-05T02:50:07;100722.55;;;19.95;69.76
31911;BME280;18457;52.432;16.914;2022-07-05T02:52:43;100718.88;;;20.01;69.56
31911;BME280;18457;52.432;16.914;2022-07-05T02:55:15;100723.73;;;20.00;69.53
31911;BME280;18457;52.432;16.914;2022-07-05T02:57:48;100723.73;;;20.03;69.68
31911;BME280;18457;52.432;16.914;2022-07-05T03:00:20;100726.12;;;20.03;69.79
31911;BME280;18457;52.432;16.914;2022-07-05T03:02:52;100728.09;;;20.00;69.77
31911;BME280;18457;52.432;16.914;2022-07-05T03:05:25;100730.38;;;20.05;69.92
31911;BME280;18457;52.432;16.914;2022-07-05T03:08:01;100728.57;;;20.08;69.99
31911;BME280;18457;52.432;16.914;2022-07-05T03:10:33;100730.45;;;20.14;69.94
31911;BME280;18457;52.432;16.914;2022-07-05T03:13:07;100737.00;;;20.02;70.32
31911;BME280;18457;52.432;16.914;2022-07-05T03:15:40;100737.23;;;20.05;70.09
31911;BME280;18457;52.432;16.914;2022-07-05T03:18:14;100737.49;;;20.09;69.98
31911;BME280;18457;52.432;16.914;2022-07-05T03:20:46;100734.80;;;20.15;70.07
31911;BME280;18457;52.432;16.914;2022-07-05T03:23:18;100735.55;;;20.18;69.93
31911;BME280;18457;52.432;16.914;2022-07-05T03:25:54;100736.75;;;20.16;70.09
31911;BME280;18457;52.432;16.914;2022-07-05T03:28:26;100739.23;;;20.08;70.61
31911;BME280;18457;52.432;16.914;2022-07-05T03:31:00;100740.34;;;20.14;70.45
31911;BME280;18457;52.432;16.914;2022-07-05T03:33:35;100741.65;;;20.07;70.96
31911;BME280;18457;52.432;16.914;2022-07-05T03:36:08;100738.55;;;20.10;70.90
31911;BME280;18457;52.432;16.914;2022-07-05T03:38:41;100743.16;;;20.16;70.81
31911;BME280;18457;52.432;16.914;2022-07-05T03:41:13;100750.27;;;20.17;70.80
31911;BME280;18457;52.432;16.914;2022-07-05T03:43:45;100748.73;;;20.18;70.68
31911;BME280;18457;52.432;16.914;2022-07-05T03:46:17;100746.79;;;20.20;70.91
31911;BME280;18457;52.432;16.914;2022-07-05T03:48:49;100742.27;;;20.25;70.38
31911;BME280;18457;52.432;16.914;2022-07-05T03:51:22;100745.95;;;20.19;71.00
31911;BME280;18457;52.432;16.914;2022-07-05T03:53:56;100748.95;;;20.27;70.62
31911;BME280;18457;52.432;16.914;2022-07-05T03:56:28;100754.20;;;20.29;70.80
31911;BME280;18457;52.432;16.914;2022-07-05T03:59:03;100749.95;;;20.29;70.59
31911;BME280;18457;52.432;16.914;2022-07-05T04:01:35;100748.48;;;20.35;70.71
31911;BME280;18457;52.432;16.914;2022-07-05T04:04:07;100755.62;;;20.38;70.54
31911;BME280;18457;52.432;16.914;2022-07-05T04:06:40;100756.74;;;20.44;70.34
31911;BME280;18457;52.432;16.914;2022-07-05T04:09:12;100765.54;;;20.45;70.31
31911;BME280;18457;52.432;16.914;2022-07-05T04:11:44;100767.48;;;20.52;70.16
31911;BME280;18457;52.432;16.914;2022-07-05T04:14:16;100776.09;;;20.46;70.41
31911;BME280;18457;52.432;16.914;2022-07-05T04:16:48;100782.14;;;20.43;70.67
31911;BME280;18457;52.432;16.914;2022-07-05T04:19:20;100789.20;;;20.48;70.44
31911;BME280;18457;52.432;16.914;2022-07-05T04:21:53;100787.77;;;20.38;70.66
31911;BME280;18457;52.432;16.914;2022-07-05T04:24:25;100789.67;;;20.34;70.80
31911;BME280;18457;52.432;16.914;2022-07-05T04:26:57;100791.61;;;20.44;70.72
31911;BME280;18457;52.432;16.914;2022-07-05T04:29:30;100796.46;;;20.21;71.75
31911;BME280;18457;52.432;16.914;2022-07-05T04:32:03;100794.69;;;20.20;71.59
31911;BME280;18457;52.432;16.914;2022-07-05T04:34:35;100794.95;;;20.15;71.89
31911;BME280;18457;52.432;16.914;2022-07-05T04:37:07;100795.25;;;20.36;71.31
31911;BME280;18457;52.432;16.914;2022-07-05T04:39:39;100799.21;;;20.17;71.81
31911;BME280;18457;52.432;16.914;2022-07-05T04:42:12;100797.38;;;20.02;72.45
31911;BME280;18457;52.432;16.914;2022-07-05T04:44:43;100794.17;;;19.90;73.20
31911;BME280;18457;52.432;16.914;2022-07-05T04:47:16;100797.80;;;20.17;72.38
31911;BME280;18457;52.432;16.914;2022-07-05T04:49:50;100800.59;;;20.42;71.41
31911;BME280;18457;52.432;16.914;2022-07-05T04:52:22;100798.39;;;20.48;71.14
31911;BME280;18457;52.432;16.914;2022-07-05T04:54:56;100799.02;;;20.56;70.87
31911;BME280;18457;52.432;16.914;2022-07-05T04:57:28;100796.04;;;20.56;70.49
31911;BME280;18457;52.432;16.914;2022-07-05T05:00:12;100806.39;;;20.61;70.58
31911;BME280;18457;52.432;16.914;2022-07-05T05:02:45;100803.95;;;20.68;70.33
31911;BME280;18457;52.432;16.914;2022-07-05T05:05:16;100806.96;;;20.64;70.45
31911;BME280;18457;52.432;16.914;2022-07-05T05:07:48;100810.61;;;20.67;70.11
31911;BME280;18457;52.432;16.914;2022-07-05T05:10:20;100815.71;;;20.65;70.16
31911;BME280;18457;52.432;16.914;2022-07-05T05:12:52;100818.84;;;20.74;69.78
31911;BME280;18457;52.432;16.914;2022-07-05T05:15:24;100818.86;;;20.83;69.73
31911;BME280;18457;52.432;16.914;2022-07-05T05:17:56;100818.33;;;20.89;69.41
31911;BME280;18457;52.432;16.914;2022-07-05T05:20:28;100821.52;;;20.91;69.03
31911;BME280;18457;52.432;16.914;2022-07-05T05:23:07;100820.06;;;20.88;69.23
31911;BME280;18457;52.432;16.914;2022-07-05T05:25:39;100821.02;;;20.87;69.11
31911;BME280;18457;52.432;16.914;2022-07-05T05:28:11;100811.05;;;20.91;68.71
31911;BME280;18457;52.432;16.914;2022-07-05T05:30:43;100821.46;;;21.01;68.87
31911;BME280;18457;52.432;16.914;2022-07-05T05:33:15;100827.73;;;21.04;68.69
31911;BME280;18457;52.432;16.914;2022-07-05T05:35:47;100824.63;;;21.07;68.50
31911;BME280;18457;52.432;16.914;2022-07-05T05:38:19;100826.03;;;21.19;71.07
31911;BME280;18457;52.432;16.914;2022-07-05T05:40:52;100827.73;;;21.31;69.19
31911;BME280;18457;52.432;16.914;2022-07-05T05:43:26;100830.48;;;21.31;68.17
31911;BME280;18457;52.432;16.914;2022-07-05T05:45:58;100832.48;;;21.25;67.92
31911;BME280;18457;52.432;16.914;2022-07-05T05:48:30;100839.42;;;21.20;67.71
31911;BME280;18457;52.432;16.914;2022-07-05T05:51:03;100833.41;;;21.19;67.45
31911;BME280;18457;52.432;16.914;2022-07-05T05:53:36;100832.66;;;21.28;67.26
31911;BME280;18457;52.432;16.914;2022-07-05T05:56:08;100834.48;;;21.37;66.42
31911;BME280;18457;52.432;16.914;2022-07-05T05:58:40;100838.83;;;21.41;65.59
31911;BME280;18457;52.432;16.914;2022-07-05T06:01:13;100841.39;;;21.42;65.91
31911;BME280;18457;52.432;16.914;2022-07-05T06:03:45;100845.15;;;21.31;65.78
31911;BME280;18457;52.432;16.914;2022-07-05T06:06:17;100847.52;;;21.34;63.37
31911;BME280;18457;52.432;16.914;2022-07-05T06:08:49;100843.91;;;21.36;62.59
31911;BME280;18457;52.432;16.914;2022-07-05T06:11:20;100840.89;;;21.49;62.60
31911;BME280;18457;52.432;16.914;2022-07-05T06:13:52;100845.27;;;21.61;62.39
31911;BME280;18457;52.432;16.914;2022-07-05T06:16:24;100847.55;;;21.57;61.98
31911;BME280;18457;52.432;16.914;2022-07-05T06:18:56;100849.72;;;21.67;61.18
31911;BME280;18457;52.432;16.914;2022-07-05T06:21:29;100849.96;;;21.75;60.19
31911;BME280;18457;52.432;16.914;2022-07-05T06:24:02;100853.39;;;21.76;59.38
31911;BME280;18457;52.432;16.914;2022-07-05T06:26:34;100856.19;;;21.90;59.10
31911;BME280;18457;52.432;16.914;2022-07-05T06:29:06;100859.50;;;21.96;59.08
31911;BME280;18457;52.432;16.914;2022-07-05T06:31:38;100856.63;;;22.00;58.45
31911;BME280;18457;52.432;16.914;2022-07-05T06:34:10;100852.70;;;22.07;58.73
31911;BME280;18457;52.432;16.914;2022-07-05T06:36:41;100849.09;;;22.06;59.26
31911;BME280;18457;52.432;16.914;2022-07-05T06:39:13;100850.02;;;22.06;58.94
31911;BME280;18457;52.432;16.914;2022-07-05T06:41:45;100849.62;;;22.15;58.53
31911;BME280;18457;52.432;16.914;2022-07-05T06:44:17;100850.43;;;22.22;58.49
31911;BME280;18457;52.432;16.914;2022-07-05T06:47:05;100851.16;;;22.25;58.79
31911;BME280;18457;52.432;16.914;2022-07-05T06:49:37;100853.67;;;22.31;59.00
31911;BME280;18457;52.432;16.914;2022-07-05T06:52:10;100857.02;;;22.31;58.35
31911;BME280;18457;52.432;16.914;2022-07-05T06:54:42;100858.52;;;22.28;56.94
31911;BME280;18457;52.432;16.914;2022-07-05T06:57:21;100857.41;;;22.28;56.16
31911;BME280;18457;52.432;16.914;2022-07-05T07:00:02;100856.52;;;22.27;55.53
31911;BME280;18457;52.432;16.914;2022-07-05T07:02:35;100854.67;;;22.33;55.72
31911;BME280;18457;52.432;16.914;2022-07-05T07:05:06;100858.34;;;22.28;56.50
31911;BME280;18457;52.432;16.914;2022-07-05T07:07:41;100856.95;;;22.16;56.93
31911;BME280;18457;52.432;16.914;2022-07-05T07:10:31;100855.41;;;22.25;56.91
31911;BME280;18457;52.432;16.914;2022-07-05T07:13:03;100856.20;;;22.38;56.73
31911;BME280;18457;52.432;16.914;2022-07-05T07:15:35;100860.77;;;22.44;56.62
31911;BME280;18457;52.432;16.914;2022-07-05T07:18:15;100852.77;;;22.26;56.70
31911;BME280;18457;52.432;16.914;2022-07-05T07:20:47;100850.34;;;22.35;56.87
31911;BME280;18457;52.432;16.914;2022-07-05T07:23:18;100847.86;;;22.47;56.12
31911;BME280;18457;52.432;16.914;2022-07-05T07:25:50;100845.98;;;22.56;55.16
31911;BME280;18457;52.432;16.914;2022-07-05T07:28:22;100846.02;;;22.64;55.22
31911;BME280;18457;52.432;16.914;2022-07-05T07:30:54;100842.56;;;22.66;54.65
31911;BME280;18457;52.432;16.914;2022-07-05T07:33:26;100842.95;;;22.69;54.68
31911;BME280;18457;52.432;16.914;2022-07-05T07:36:14;100836.84;;;22.55;55.11
31911;BME280;18457;52.432;16.914;2022-07-05T07:38:45;100834.52;;;22.51;55.22
31911;BME280;18457;52.432;16.914;2022-07-05T07:41:16;100833.55;;;22.69;55.45
31911;BME280;18457;52.432;16.914;2022-07-05T07:43:48;100837.15;;;22.67;55.49
31911;BME280;18457;52.432;16.914;2022-07-05T07:46:20;100836.92;;;22.67;55.42
31911;BME280;18457;52.432;16.914;2022-07-05T07:48:52;100835.19;;;22.72;55.78
31911;BME280;18457;52.432;16.914;2022-07-05T07:51:24;100834.15;;;22.84;55.52
31911;BME280;18457;52.432;16.914;2022-07-05T07:53:56;100840.05;;;22.94;54.97
31911;BME280;18457;52.432;16.914;2022-07-05T07:56:34;100837.70;;;22.99;54.23
31911;BME280;18457;52.432;16.914;2022-07-05T07:59:06;100831.67;;;23.09;53.00
31911;BME280;18457;52.432;16.914;2022-07-05T08:01:38;100837.72;;;23.17;52.09
31911;BME280;18457;52.432;16.914;2022-07-05T08:04:15;100831.73;;;23.24;52.08
31911;BME280;18457;52.432;16.914;2022-07-05T08:06:47;100832.70;;;23.31;50.93
31911;BME280;18457;52.432;16.914;2022-07-05T08:09:18;100838.08;;;23.42;50.23
31911;BME280;18457;52.432;16.914;2022-07-05T08:11:50;100832.40;;;23.47;49.61
31911;BME280;18457;52.432;16.914;2022-07-05T08:14:21;100833.92;;;23.54;49.38
31911;BME280;18457;52.432;16.914;2022-07-05T08:16:52;100837.05;;;23.49;48.32
31911;BME280;18457;52.432;16.914;2022-07-05T08:19:24;100835.79;;;23.46;48.01
31911;BME280;18457;52.432;16.914;2022-07-05T08:22:14;100829.20;;;23.34;47.10
31911;BME280;18457;52.432;16.914;2022-07-05T08:24:46;100828.21;;;23.29;46.84
31911;BME280;18457;52.432;16.914;2022-07-05T08:27:18;100835.02;;;23.51;47.21
31911;BME280;18457;52.432;16.914;2022-07-05T08:29:50;100827.62;;;23.67;45.13
31911;BME280;18457;52.432;16.914;2022-07-05T08:32:22;100827.71;;;23.76;46.01
31911;BME280;18457;52.432;16.914;2022-07-05T08:34:54;100826.77;;;23.81;45.18
31911;BME280;18457;52.432;16.914;2022-07-05T08:37:26;100834.13;;;23.97;42.90
31911;BME280;18457;52.432;16.914;2022-07-05T08:39:57;100838.81;;;24.08;42.47
31911;BME280;18457;52.432;16.914;2022-07-05T08:42:29;100833.36;;;24.24;42.00
31911;BME280;18457;52.432;16.914;2022-07-05T08:45:00;100840.85;;;24.36;41.52
31911;BME280;18457;52.432;16.914;2022-07-05T08:47:33;100836.26;;;24.45;40.65
31911;BME280;18457;52.432;16.914;2022-07-05T08:50:08;100836.12;;;24.49;40.41
31911;BME280;18457;52.432;16.914;2022-07-05T08:52:41;100838.82;;;24.53;40.75
31911;BME280;18457;52.432;16.914;2022-07-05T08:55:15;100838.69;;;24.62;41.31
31911;BME280;18457;52.432;16.914;2022-07-05T08:57:45;100834.17;;;24.63;41.89
31911;BME280;18457;52.432;16.914;2022-07-05T09:00:18;100830.02;;;24.35;41.80
31911;BME280;18457;52.432;16.914;2022-07-05T09:02:50;100831.90;;;24.32;41.97
31911;BME280;18457;52.432;16.914;2022-07-05T09:05:23;100835.67;;;24.38;41.88
31911;BME280;18457;52.432;16.914;2022-07-05T09:08:03;100835.46;;;24.49;42.20
31911;BME280;18457;52.432;16.914;2022-07-05T09:10:38;100833.27;;;24.43;41.98
31911;BME280;18457;52.432;16.914;2022-07-05T09:13:18;100830.75;;;24.47;41.98
31911;BME280;18457;52.432;16.914;2022-07-05T09:15:50;100829.66;;;24.52;42.20
31911;BME280;18457;52.432;16.914;2022-07-05T09:18:43;100826.59;;;24.46;42.16
31911;BME280;18457;52.432;16.914;2022-07-05T09:21:16;100829.74;;;24.46;42.59
31911;BME280;18457;52.432;16.914;2022-07-05T09:23:54;100826.63;;;24.33;42.37
31911;BME280;18457;52.432;16.914;2022-07-05T09:26:33;100825.84;;;24.24;43.07
31911;BME280;18457;52.432;16.914;2022-07-05T09:29:06;100831.65;;;24.41;43.36
31911;BME280;18457;52.432;16.914;2022-07-05T09:31:59;100829.36;;;24.46;43.38
31911;BME280;18457;52.432;16.914;2022-07-05T09:34:31;100830.48;;;24.23;43.06
31911;BME280;18457;52.432;16.914;2022-07-05T09:37:05;100834.34;;;24.14;43.05
31911;BME280;18457;52.432;16.914;2022-07-05T09:39:39;100830.83;;;24.29;43.24
31911;BME280;18457;52.432;16.914;2022-07-05T09:42:13;100826.69;;;24.30;43.21
31911;BME280;18457;52.432;16.914;2022-07-05T09:44:46;100827.33;;;24.56;43.03
31911;BME280;18457;52.432;16.914;2022-07-05T09:47:20;100827.51;;;24.51;42.71
31911;BME280;18457;52.432;16.914;2022-07-05T09:49:53;100827.27;;;24.59;43.21
31911;BME280;18457;52.432;16.914;2022-07-05T09:52:41;100830.02;;;24.45;42.87
31911;BME280;18457;52.432;16.914;2022-07-05T09:55:15;100829.96;;;24.70;43.16
31911;BME280;18457;52.432;16.914;2022-07-05T09:57:49;100830.31;;;24.99;43.54
31911;BME280;18457;52.432;16.914;2022-07-05T10:00:23;100827.17;;;25.13;43.74
31911;BME280;18457;52.432;16.914;2022-07-05T10:02:57;100833.92;;;25.26;43.55
31911;BME280;18457;52.432;16.914;2022-07-05T10:05:33;100829.45;;;25.43;43.12
31911;BME280;18457;52.432;16.914;2022-07-05T10:08:05;100826.04;;;25.53;42.91
31911;BME280;18457;52.432;16.914;2022-07-05T10:10:37;100825.71;;;25.60;42.51
31911;BME280;18457;52.432;16.914;2022-07-05T10:13:08;100824.02;;;25.74;42.43
31911;BME280;18457;52.432;16.914;2022-07-05T10:15:41;100826.52;;;25.93;41.89
31911;BME280;18457;52.432;16.914;2022-07-05T10:18:17;100827.27;;;26.14;41.60
31911;BME280;18457;52.432;16.914;2022-07-05T10:20:51;100831.89;;;26.16;41.28
31911;BME280;18457;52.432;16.914;2022-07-05T10:23:24;100825.91;;;26.12;40.62
31911;BME280;18457;52.432;16.914;2022-07-05T10:25:58;100826.32;;;26.34;41.20
31911;BME280;18457;52.432;16.914;2022-07-05T10:28:31;100824.77;;;26.48;40.69
31911;BME280;18457;52.432;16.914;2022-07-05T10:31:05;100826.34;;;26.49;41.39
31911;BME280;18457;52.432;16.914;2022-07-05T10:33:40;100821.67;;;26.41;40.87
31911;BME280;18457;52.432;16.914;2022-07-05T10:36:13;100823.53;;;26.49;40.50
31911;BME280;18457;52.432;16.914;2022-07-05T10:38:46;100818.40;;;26.71;40.12
31911;BME280;18457;52.432;16.914;2022-07-05T10:41:21;100812.21;;;26.89;39.90
31911;BME280;18457;52.432;16.914;2022-07-05T10:43:55;100820.83;;;26.86;38.89
31911;BME280;18457;52.432;16.914;2022-07-05T10:46:37;100820.16;;;26.78;38.63
31911;BME280;18457;52.432;16.914;2022-07-05T10:49:13;100818.04;;;26.91;38.64
31911;BME280;18457;52.432;16.914;2022-07-05T10:51:45;100812.91;;;27.05;38.65
31911;BME280;18457;52.432;16.914;2022-07-05T10:54:23;100810.25;;;26.82;38.39
31911;BME280;18457;52.432;16.914;2022-07-05T10:57:22;100807.64;;;27.05;38.15
31911;BME280;18457;52.432;16.914;2022-07-05T11:00:08;100802.55;;;27.09;37.93
31911;BME280;18457;52.432;16.914;2022-07-05T11:02:40;100800.73;;;27.27;38.06
31911;BME280;18457;52.432;16.914;2022-07-05T11:05:17;100795.27;;;26.99;38.46
31911;BME280;18457;52.432;16.914;2022-07-05T11:08:08;100784.80;;;27.19;38.11
31911;BME280;18457;52.432;16.914;2022-07-05T11:11:10;100780.02;;;27.29;37.75
31911;BME280;18457;52.432;16.914;2022-07-05T11:13:42;100782.48;;;27.07;37.70
31911;BME280;18457;52.432;16.914;2022-07-05T11:16:25;100785.93;;;27.14;37.36
31911;BME280;18457;52.432;16.914;2022-07-05T11:19:05;100781.77;;;27.19;37.66
31911;BME280;18457;52.432;16.914;2022-07-05T11:21:39;100778.44;;;27.30;36.89
31911;BME280;18457;52.432;16.914;2022-07-05T11:24:21;100775.98;;;27.49;36.59
31911;BME280;18457;52.432;16.914;2022-07-05T11:26:53;100777.15;;;27.54;36.57
31911;BME280;18457;52.432;16.914;2022-07-05T11:29:44;100774.64;;;27.64;36.49
31911;BME280;18457;52.432;16.914;2022-07-05T11:32:19;100775.45;;;27.55;36.31
31911;BME280;18457;52.432;16.914;2022-07-05T11:34:52;100778.49;;;27.33;36.71
31911;BME280;18457;52.432;16.914;2022-07-05T11:37:26;100777.17;;;27.57;36.60
31911;BME280;18457;52.432;16.914;2022-07-05T11:40:32;100775.70;;;27.83;36.21
31911;BME280;18457;52.432;16.914;2022-07-05T11:43:04;100768.85;;;27.99;35.73
31911;BME280;18457;52.432;16.914;2022-07-05T11:45:37;100766.25;;;28.13;35.83
31911;BME280;18457;52.432;16.914;2022-07-05T11:48:15;100765.86;;;28.08;35.46
31911;BME280;18457;52.432;16.914;2022-07-05T11:50:48;100762.65;;;27.98;35.92
31911;BME280;18457;52.432;16.914;2022-07-05T11:53:26;100761.15;;;27.90;35.81
31911;BME280;18457;52.432;16.914;2022-07-05T11:56:18;100753.11;;;27.84;35.97
31911;BME280;18457;52.432;16.914;2022-07-05T11:58:50;100749.45;;;28.06;35.48
31911;BME280;18457;52.432;16.914;2022-07-05T12:01:22;100756.30;;;28.00;35.75
31911;BME280;18457;52.432;16.914;2022-07-05T12:03:57;100753.50;;;27.94;35.41
31911;BME280;18457;52.432;16.914;2022-07-05T12:06:29;100748.83;;;27.84;34.89
31911;BME280;18457;52.432;16.914;2022-07-05T12:09:05;100749.54;;;27.91;35.02
31911;BME280;18457;52.432;16.914;2022-07-05T12:11:37;100753.11;;;27.99;34.56
31911;BME280;18457;52.432;16.914;2022-07-05T12:14:26;100748.52;;;28.16;34.07
31911;BME280;18457;52.432;16.914;2022-07-05T12:17:16;100745.66;;;28.05;34.02
31911;BME280;18457;52.432;16.914;2022-07-05T12:19:54;100747.66;;;27.79;33.26
31911;BME280;18457;52.432;16.914;2022-07-05T12:22:36;100742.88;;;28.13;33.11
31911;BME280;18457;52.432;16.914;2022-07-05T12:25:10;100745.59;;;28.32;32.70
31911;BME280;18457;52.432;16.914;2022-07-05T12:27:44;100741.79;;;28.10;32.32
31911;BME280;18457;52.432;16.914;2022-07-05T12:30:19;100744.15;;;28.27;31.71
31911;BME280;18457;52.432;16.914;2022-07-05T12:33:02;100735.05;;;28.09;31.35
31911;BME280;18457;52.432;16.914;2022-07-05T12:35:38;100726.98;;;27.94;32.04
31911;BME280;18457;52.432;16.914;2022-07-05T12:38:12;100730.98;;;27.99;32.89
31911;BME280;18457;52.432;16.914;2022-07-05T12:40:47;100731.16;;;28.03;32.98
31911;BME280;18457;52.432;16.914;2022-07-05T12:43:20;100732.55;;;27.59;31.46
31911;BME280;18457;52.432;16.914;2022-07-05T12:45:59;100728.80;;;27.45;31.20
31911;BME280;18457;52.432;16.914;2022-07-05T12:48:36;100726.55;;;27.37;31.84
31911;BME280;18457;52.432;16.914;2022-07-05T12:51:10;100730.04;;;27.33;32.17
31911;BME280;18457;52.432;16.914;2022-07-05T12:53:50;100730.50;;;27.18;31.51
31911;BME280;18457;52.432;16.914;2022-07-05T12:56:40;100726.70;;;27.54;31.62
31911;BME280;18457;52.432;16.914;2022-07-05T13:00:04;100729.80;;;27.90;32.05
31911;BME280;18457;52.432;16.914;2022-07-05T13:02:37;100729.00;;;27.88;32.16
31911;BME280;18457;52.432;16.914;2022-07-05T13:05:18;100727.38;;;27.45;32.23
31911;BME280;18457;52.432;16.914;2022-07-05T13:07:54;100718.31;;;27.50;32.07
31911;BME280;18457;52.432;16.914;2022-07-05T13:10:27;100717.58;;;27.42;32.40
31911;BME280;18457;52.432;16.914;2022-07-05T13:13:09;100721.64;;;27.27;32.75
31911;BME280;18457;52.432;16.914;2022-07-05T13:15:41;100719.39;;;27.13;33.26
31911;BME280;18457;52.432;16.914;2022-07-05T13:18:24;100718.10;;;27.05;33.07